Urbandale, Illinois
Current Conditions -  °F | °C
As of 2:15 AM on Friday 21 Nov 2014 (Local Time) from KCIR Reporting Station
Overcast Overcast  
Wind Chill: 28°   Ceiling: 5500
Heat Index: 35°   Visibility: 10mi
Dew Point: 27°   Wind: 8mph
Humidity: 74%   Direction: 40°NE
Pressure: 30.35"   Gusts: NA
Location:  37.048°N, 89.2036°W
Report Text: KCIR 210815Z AUTO 04007KT 10SM OVC055 01/M03 A3035 RMK AO2 T00141027
Loading
Personal Weather Stations






























Interactive Weather Map New forecast layout! Learn more

10-Day Weather Forecast

Advertisements
Track Severe Weather on mobile